Time;durP1;ratioP1;P1;durP2;ratioP2;P2;SDS_P1;SDS_P2;PMS_P1;PMS_P2;Temp;Humidity;BMP_temperature;BMP_pressure;BME280_temperature;BME280_humidity;BME280_pressure;Samples;Min_cycle;Max_cycle;Signal;HPM_P1;HPM_P2
2022/09/02 00:01:38;;;;;;;8.27;2.50;;;19.40;26.40;;;;;;5024355;28;20444;-86
2022/09/02 00:04:07;;;;;;;6.23;2.17;;;19.40;26.10;;;;;;5028060;28;20520;-87
2022/09/02 00:06:35;;;;;;;6.93;2.20;;;19.40;26.00;;;;;;5023813;28;20813;-85
2022/09/02 00:09:02;;;;;;;13.27;2.50;;;19.30;27.00;;;;;;5024274;28;21092;-86
2022/09/02 00:11:30;;;;;;;11.20;2.77;;;19.30;26.60;;;;;;5022384;28;20448;-87
2022/09/02 00:13:57;;;;;;;4.70;2.63;;;19.30;26.70;;;;;;5020707;28;20460;-87
2022/09/02 00:16:23;;;;;;;9.47;2.47;;;19.20;27.30;;;;;;5017324;28;20437;-86
2022/09/02 00:18:50;;;;;;;8.93;2.47;;;19.20;27.50;;;;;;5018215;28;20530;-86
2022/09/02 00:21:17;;;;;;;7.47;2.33;;;19.20;27.90;;;;;;5018863;28;20886;-86
2022/09/02 00:23:44;;;;;;;6.47;2.80;;;19.10;28.00;;;;;;5022380;28;20456;-86
2022/09/02 00:26:12;;;;;;;5.07;2.37;;;19.10;28.50;;;;;;5017799;28;20457;-86
2022/09/02 00:28:38;;;;;;;10.13;2.60;;;19.00;28.50;;;;;;5020372;28;20439;-86
2022/09/02 00:31:04;;;;;;;4.40;2.30;;;19.00;28.70;;;;;;5017384;28;20434;-86
2022/09/02 00:33:30;;;;;;;3.17;2.10;;;19.00;28.90;;;;;;5021289;28;20458;-85
2022/09/02 00:36:01;;;;;;;5.40;2.10;;;18.90;41.60;;;;;;5015905;28;20431;-86
2022/09/02 00:38:27;;;;;;;3.10;1.90;;;18.90;29.80;;;;;;5033003;28;20472;-85
2022/09/02 00:40:53;;;;;;;4.53;1.90;;;18.80;30.00;;;;;;5020456;28;20433;-86
2022/09/02 00:43:25;;;;;;;8.20;1.87;;;18.80;29.60;;;;;;5024122;28;20532;-85
2022/09/02 00:45:52;;;;;;;2.70;1.90;;;18.80;29.80;;;;;;5017092;28;20253;-85
2022/09/02 00:48:18;;;;;;;7.23;1.67;;;18.80;30.00;;;;;;5020382;28;20961;-86
2022/09/02 00:50:43;;;;;;;7.40;1.97;;;18.70;30.30;;;;;;5037756;28;20435;-86
2022/09/02 00:53:12;;;;;;;5.00;1.90;;;18.70;30.50;;;;;;5018451;28;20686;-86
2022/09/02 00:55:46;;;;;;;6.20;1.97;;;18.70;30.80;;;;;;5020406;28;20178;-85
2022/09/02 00:58:19;;;;;;;5.27;2.30;;;18.70;30.00;;;;;;5020179;28;20848;-86
2022/09/02 01:00:47;;;;;;;3.40;1.90;;;18.70;30.50;;;;;;5020782;28;20869;-86
2022/09/02 01:03:18;;;;;;;5.63;2.33;;;18.70;31.20;;;;;;5018453;28;20447;-86
2022/09/02 01:05:47;;;;;;;3.87;2.30;;;18.60;32.40;;;;;;5017522;28;20433;-87
2022/09/02 01:08:18;;;;;;;7.70;2.27;;;18.60;31.90;;;;;;5021183;28;20949;-86
2022/09/02 01:10:44;;;;;;;5.47;3.13;;;18.60;33.30;;;;;;5020886;28;20501;-86
2022/09/02 01:13:16;;;;;;;6.00;2.20;;;18.60;33.00;;;;;;5018476;28;20462;-86
2022/09/02 01:15:45;;;;;;;4.37;2.27;;;18.50;33.30;;;;;;5015286;28;20481;-86
2022/09/02 01:18:16;;;;;;;13.27;3.83;;;18.50;33.60;;;;;;5018726;28;20494;-85
2022/09/02 01:20:42;;;;;;;11.87;3.40;;;18.50;34.40;;;;;;5017710;28;20955;-85
2022/09/02 01:23:08;;;;;;;9.70;2.87;;;18.50;34.10;;;;;;5015553;28;20459;-86
2022/09/02 01:25:34;;;;;;;14.57;2.87;;;18.50;35.30;;;;;;5019609;28;20183;-86
2022/09/02 01:28:05;;;;;;;14.03;2.90;;;18.40;35.50;;;;;;5021087;28;20430;-86
2022/09/02 01:30:31;;;;;;;8.43;3.00;;;18.40;35.70;;;;;;5017610;28;20422;-86
2022/09/02 01:32:57;;;;;;;7.80;3.07;;;18.40;36.40;;;;;;5020588;28;20540;-86
2022/09/02 01:35:23;;;;;;;18.87;3.90;;;18.40;36.40;;;;;;5035381;28;21011;-86
2022/09/02 01:37:49;;;;;;;10.83;3.50;;;18.40;36.60;;;;;;5017473;28;20201;-86
2022/09/02 01:40:17;;;;;;;4.57;2.50;;;18.40;37.00;;;;;;5030562;28;20245;-86
2022/09/02 01:42:44;;;;;;;12.27;2.53;;;18.30;38.10;;;;;;5019637;28;20453;-86
2022/09/02 01:45:10;;;;;;;14.63;2.90;;;18.30;38.30;;;;;;5018135;28;20439;-86
2022/09/02 01:47:36;;;;;;;3.80;2.30;;;18.30;51.10;;;;;;5022115;28;20480;-85
2022/09/02 01:50:06;;;;;;;11.93;3.60;;;18.30;39.30;;;;;;5018939;28;20532;-86
2022/09/02 01:52:33;;;;;;;9.03;2.90;;;18.30;39.40;;;;;;5032666;28;20449;-86
2022/09/02 01:54:59;;;;;;;20.30;3.20;;;18.20;40.30;;;;;;5018041;28;21039;-86
2022/09/02 01:57:24;;;;;;;11.20;2.77;;;18.20;40.30;;;;;;5018737;28;20457;-86
2022/09/02 01:59:51;;;;;;;8.23;2.40;;;18.20;40.70;;;;;;5017301;28;20211;-86
2022/09/02 02:02:18;;;;;;;10.63;2.73;;;18.20;41.40;;;;;;5022958;28;20723;-86
2022/09/02 02:04:43;;;;;;;16.57;2.93;;;18.20;41.90;;;;;;5018702;28;20489;-85
2022/09/02 02:07:09;;;;;;;10.23;3.33;;;18.20;42.30;;;;;;5015162;28;20435;-86
2022/09/02 02:09:35;;;;;;;15.13;3.93;;;18.10;43.50;;;;;;5016427;28;20433;-86
2022/09/02 02:12:00;;;;;;;17.10;3.20;;;18.20;44.10;;;;;;5012109;28;20584;-86
2022/09/02 02:14:26;;;;;;;11.97;3.23;;;18.10;44.30;;;;;;5013983;28;20178;-86
2022/09/02 02:16:51;;;;;;;13.07;2.93;;;18.10;45.20;;;;;;5015709;28;20203;-86
2022/09/02 02:19:17;;;;;;;11.63;3.80;;;18.10;45.50;;;;;;5015042;28;20678;-86
2022/09/02 02:21:43;;;;;;;12.20;3.10;;;18.10;45.20;;;;;;5018759;28;20179;-86
2022/09/02 02:24:08;;;;;;;15.53;4.07;;;18.10;45.80;;;;;;5020982;28;20284;-86
2022/09/02 02:26:35;;;;;;;15.00;3.70;;;18.00;46.50;;;;;;5013597;28;20285;-85
2022/09/02 02:29:01;;;;;;;12.37;3.27;;;18.00;47.00;;;;;;5016914;28;20183;-86
2022/09/02 02:31:27;;;;;;;8.53;3.50;;;18.00;48.80;;;;;;5017039;28;20463;-85
2022/09/02 02:33:52;;;;;;;13.00;3.27;;;18.00;60.60;;;;;;5013814;28;20465;-86
2022/09/02 02:36:18;;;;;;;18.40;4.03;;;18.00;49.00;;;;;;5019014;28;20198;-86
2022/09/02 02:38:45;;;;;;;11.50;3.40;;;17.90;50.50;;;;;;5009921;28;20209;-86
2022/09/02 02:41:12;;;;;;;14.33;3.83;;;17.90;50.10;;;;;;5017071;28;20473;-86
2022/09/02 02:43:38;;;;;;;11.50;3.77;;;17.90;50.20;;;;;;5017927;28;20552;-86
2022/09/02 02:46:10;;;;;;;12.10;2.90;;;17.90;51.80;;;;;;5020942;28;20456;-86
2022/09/02 02:48:37;;;;;;;10.87;3.60;;;17.90;51.70;;;;;;5013369;28;20204;-86
2022/09/02 02:51:03;;;;;;;19.03;4.33;;;17.80;51.90;;;;;;5016123;28;20446;-85
2022/09/02 02:53:30;;;;;;;11.77;3.40;;;17.80;52.90;;;;;;5016209;28;20467;-86
2022/09/02 02:55:56;;;;;;;13.27;3.20;;;17.80;52.90;;;;;;5017542;28;20455;-85
2022/09/02 02:58:22;;;;;;;6.77;3.30;;;17.80;54.00;;;;;;5029730;28;20476;-85
2022/09/02 03:00:48;;;;;;;6.50;2.77;;;17.80;53.70;;;;;;5020250;28;20441;-86
2022/09/02 03:03:18;;;;;;;7.67;2.40;;;17.80;53.90;;;;;;5014538;28;20511;-86
2022/09/02 03:05:46;;;;;;;8.27;2.80;;;17.80;54.20;;;;;;5015956;28;20433;-85
2022/09/02 03:08:11;;;;;;;9.50;2.47;;;17.80;54.40;;;;;;5014983;28;20603;-87
2022/09/02 03:10:40;;;;;;;10.90;3.30;;;17.80;54.00;;;;;;5018626;28;20433;-86
2022/09/02 03:13:08;;;;;;;4.10;2.60;;;17.80;55.50;;;;;;5015225;28;20214;-87
2022/09/02 03:15:35;;;;;;;6.03;2.23;;;17.80;55.60;;;;;;5009552;28;20435;-85
2022/09/02 03:18:01;;;;;;;5.37;2.10;;;17.90;55.00;;;;;;5018259;28;20801;-86
2022/09/02 03:20:27;;;;;;;5.60;2.50;;;17.90;54.60;;;;;;5017390;28;20460;-86
2022/09/02 03:22:56;;;;;;;4.87;2.13;;;17.90;55.20;;;;;;5019289;28;20548;-86
2022/09/02 03:25:22;;;;;;;5.07;2.30;;;17.90;55.30;;;;;;5017527;28;20445;-86
2022/09/02 03:27:48;;;;;;;5.23;2.37;;;17.90;59.50;;;;;;5018067;28;20441;-85
2022/09/02 03:30:18;;;;;;;6.50;2.30;;;17.90;55.30;;;;;;5016126;28;20445;-86
2022/09/02 03:32:45;;;;;;;5.10;2.20;;;18.00;55.20;;;;;;5012028;28;20453;-86
2022/09/02 03:35:13;;;;;;;6.87;2.07;;;18.00;55.90;;;;;;5014811;28;20445;-85
2022/09/02 03:37:39;;;;;;;8.40;2.50;;;17.90;56.10;;;;;;5020450;28;20527;-85
2022/09/02 03:40:07;;;;;;;3.73;2.50;;;17.90;56.20;;;;;;5017710;28;20952;-86
2022/09/02 03:42:33;;;;;;;4.73;1.90;;;18.00;56.20;;;;;;5015872;28;20573;-85
2022/09/02 03:44:58;;;;;;;6.00;2.50;;;17.90;56.60;;;;;;5021115;28;20527;-86
2022/09/02 03:47:24;;;;;;;3.80;2.40;;;17.90;56.60;;;;;;5018958;28;20262;-86
2022/09/02 03:49:50;;;;;;;6.50;2.43;;;17.90;56.80;;;;;;5025149;28;20261;-85
2022/09/02 03:52:16;;;;;;;14.87;2.47;;;17.90;57.10;;;;;;5018452;28;21031;-85
2022/09/02 03:54:41;;;;;;;3.67;1.93;;;17.90;58.00;;;;;;5023568;28;20472;-86
2022/09/02 03:57:07;;;;;;;8.00;2.37;;;17.90;58.30;;;;;;5017421;28;20191;-86
2022/09/02 03:59:33;;;;;;;3.10;2.23;;;17.90;59.20;;;;;;5022860;28;20202;-87
2022/09/02 04:02:01;;;;;;;6.40;2.20;;;17.90;58.90;;;;;;5019725;28;20517;-85
2022/09/02 04:04:27;;;;;;;6.37;2.10;;;17.80;59.20;;;;;;5024118;28;20514;-86
2022/09/02 04:06:53;;;;;;;6.40;2.40;;;17.80;59.10;;;;;;5017037;28;20508;-84
2022/09/02 04:09:18;;;;;;;4.70;2.07;;;17.80;59.20;;;;;;5018515;28;20444;-86
2022/09/02 04:11:44;;;;;;;3.37;2.40;;;17.80;60.00;;;;;;5018401;28;20197;-86
2022/09/02 04:14:10;;;;;;;3.13;2.40;;;17.80;61.00;;;;;;5017966;28;20207;-86
2022/09/02 04:16:36;;;;;;;9.17;2.57;;;17.80;60.00;;;;;;5017526;28;20622;-86
2022/09/02 04:19:02;;;;;;;9.63;2.60;;;17.70;60.20;;;;;;5015255;28;20505;-86
2022/09/02 04:21:32;;;;;;;4.70;2.20;;;17.70;60.60;;;;;;5015492;28;20242;-86
2022/09/02 04:23:57;;;;;;;5.07;2.10;;;17.70;60.80;;;;;;5015881;28;20501;-86
2022/09/02 04:26:23;;;;;;;6.10;2.33;;;17.70;62.00;;;;;;5017828;28;20936;-85
2022/09/02 04:28:50;;;;;;;8.10;2.30;;;17.60;62.30;;;;;;5015542;28;20229;-86
2022/09/02 04:31:19;;;;;;;5.27;2.90;;;17.60;62.30;;;;;;5020243;28;20262;-86
2022/09/02 04:33:45;;;;;;;9.53;4.13;;;17.60;63.70;;;;;;5011982;28;20476;-86
2022/09/02 04:36:14;;;;;;;8.37;3.10;;;17.50;64.00;;;;;;5016960;28;20495;-85
2022/09/02 04:38:40;;;;;;;11.10;2.57;;;17.50;65.20;;;;;;5016792;28;20519;-86
2022/09/02 04:41:09;;;;;;;7.23;2.93;;;17.50;65.40;;;;;;5016795;28;20924;-86
2022/09/02 04:43:37;;;;;;;6.33;3.00;;;17.50;65.80;;;;;;5019514;28;20451;-87
2022/09/02 04:46:08;;;;;;;4.80;2.23;;;17.50;68.70;;;;;;5018018;28;20437;-86
2022/09/02 04:48:37;;;;;;;5.00;2.57;;;17.50;68.20;;;;;;5015160;28;20448;-85
2022/09/02 04:51:05;;;;;;;6.20;2.80;;;17.50;69.20;;;;;;5014333;28;20440;-85
2022/09/02 04:53:31;;;;;;;6.13;2.23;;;17.50;69.40;;;;;;5013464;28;20477;-86
2022/09/02 04:55:57;;;;;;;4.57;2.00;;;17.50;69.50;;;;;;5015500;28;20434;-85
2022/09/02 04:58:23;;;;;;;8.83;2.83;;;17.50;70.30;;;;;;5016059;28;20465;-86
2022/09/02 05:00:48;;;;;;;4.53;2.50;;;17.50;70.20;;;;;;5015638;28;20182;-86
2022/09/02 05:03:14;;;;;;;7.70;2.30;;;17.50;71.40;;;;;;5016324;28;20673;-86
2022/09/02 05:05:40;;;;;;;8.50;2.33;;;17.50;72.50;;;;;;5020016;28;20183;-87
2022/09/02 05:08:05;;;;;;;7.60;2.27;;;17.50;73.10;;;;;;5016106;28;20191;-86
2022/09/02 05:10:31;;;;;;;9.07;2.43;;;17.60;73.30;;;;;;5016103;28;20237;-86
2022/09/02 05:12:58;;;;;;;4.47;2.27;;;17.60;75.10;;;;;;5016403;28;20457;-86
2022/09/02 05:15:24;;;;;;;4.07;2.50;;;17.60;75.20;;;;;;5015772;28;20236;-86
2022/09/02 05:17:49;;;;;;;4.53;2.53;;;17.70;75.20;;;;;;5015846;28;20442;-86
2022/09/02 05:20:15;;;;;;;6.13;2.90;;;17.80;75.50;;;;;;5021809;28;20211;-87
2022/09/02 05:22:42;;;;;;;8.00;2.90;;;17.90;74.70;;;;;;5019046;28;20200;-86
2022/09/02 05:25:08;;;;;;;7.97;3.07;;;18.00;75.50;;;;;;5012703;28;20187;-86
2022/09/02 05:27:34;;;;;;;4.60;2.80;;;18.10;74.90;;;;;;5019481;28;20441;-86
2022/09/02 05:30:01;;;;;;;10.03;2.80;;;18.20;75.50;;;;;;5017078;28;20499;-86
2022/09/02 05:32:27;;;;;;;6.60;2.90;;;18.30;74.90;;;;;;5020597;28;20474;-87
2022/09/02 05:34:54;;;;;;;3.50;2.20;;;18.50;75.80;;;;;;5029414;28;20536;-85
2022/09/02 05:37:21;;;;;;;5.13;2.90;;;18.60;73.80;;;;;;5015987;28;20467;-85
2022/09/02 05:39:46;;;;;;;2.73;2.00;;;18.70;73.10;;;;;;5014821;28;20476;-85
2022/09/02 05:42:12;;;;;;;5.20;2.20;;;;;;;;;;5015965;28;20520;-86
2022/09/02 05:44:38;;;;;;;7.50;2.70;;;21.20;63.30;;;;;;5015567;28;20599;-87
2022/09/02 05:47:04;;;;;;;3.47;1.97;;;22.50;73.90;;;;;;5018098;28;20418;-85
2022/09/02 05:49:30;;;;;;;7.20;2.50;;;22.00;65.50;;;;;;5020578;28;20198;-84
2022/09/02 05:51:58;;;;;;;7.80;2.30;;;21.90;63.20;;;;;;5019255;28;20455;-84
2022/09/02 05:54:30;;;;;;;6.90;3.17;;;24.00;69.90;;;;;;5016001;28;20444;-85
2022/09/02 05:56:59;;;;;;;2.90;2.13;;;27.80;78.00;;;;;;5025408;28;21040;-84
2022/09/02 05:59:27;;;;;;;3.60;2.10;;;31.10;80.30;;;;;;5015561;28;20993;-85
2022/09/02 06:01:53;;;;;;;6.43;2.70;;;33.30;77.20;;;;;;5004593;28;20509;-84
2022/09/02 06:04:21;;;;;;;5.33;1.90;;;34.50;68.20;;;;;;5024028;28;20425;-85
2022/09/02 06:06:47;;;;;;;12.83;2.43;;;32.70;52.20;;;;;;5017075;28;20915;-84
2022/09/02 06:09:15;;;;;;;6.23;2.77;;;30.90;43.30;;;;;;5023238;28;20555;-84
2022/09/02 06:11:48;;;;;;;6.93;2.27;;;28.70;34.40;;;;;;5016735;28;20442;-87
2022/09/02 06:14:16;;;;;;;4.50;2.20;;;26.90;28.10;;;;;;5020478;28;20464;-83
2022/09/02 06:16:42;;;;;;;8.13;2.60;;;25.40;25.40;;;;;;5015266;28;20438;-84
2022/09/02 06:19:08;;;;;;;6.47;2.60;;;24.50;23.60;;;;;;5019408;28;20442;-86
2022/09/02 06:21:35;;;;;;;3.70;2.60;;;23.80;23.20;;;;;;5022422;28;20456;-84
2022/09/02 06:24:04;;;;;;;10.30;2.23;;;24.20;25.60;;;;;;5017410;28;20568;-84
2022/09/02 06:26:30;;;;;;;4.50;2.27;;;24.30;25.50;;;;;;5021763;28;20516;-84
2022/09/02 06:28:56;;;;;;;4.13;2.07;;;24.20;25.80;;;;;;5020184;28;20470;-85
2022/09/02 06:31:22;;;;;;;4.43;1.77;;;24.50;27.40;;;;;;5019847;28;20556;-85
2022/09/02 06:33:51;;;;;;;5.63;2.10;;;24.70;27.20;;;;;;5017807;28;20222;-84
2022/09/02 06:36:18;;;;;;;2.60;1.90;;;25.80;29.20;;;;;;5012393;28;20831;-84
2022/09/02 06:38:47;;;;;;;4.30;1.87;;;28.70;35.70;;;;;;5005307;28;20422;-85
2022/09/02 06:41:16;;;;;;;5.40;2.07;;;32.60;42.80;;;;;;5012929;28;20413;-85
2022/09/02 06:43:42;;;;;;;6.57;2.00;;;35.80;44.30;;;;;;5012643;28;20433;-85
2022/09/02 06:46:12;;;;;;;3.10;1.90;;;37.90;40.20;;;;;;5011755;28;20425;-85
2022/09/02 06:48:38;;;;;;;5.30;1.90;;;39.60;34.40;;;;;;5011640;28;20210;-84
2022/09/02 06:51:04;;;;;;;6.33;2.20;;;41.30;28.30;;;;;;5011644;28;20421;-85
2022/09/02 06:53:29;;;;;;;3.70;1.90;;;42.50;23.80;;;;;;5012682;28;20799;-85
2022/09/02 06:55:55;;;;;;;4.67;1.87;;;43.50;19.60;;;;;;5012762;28;20185;-86
2022/09/02 06:58:20;;;;;;;3.70;1.90;;;43.90;16.50;;;;;;5011752;28;20202;-85
2022/09/02 07:00:46;;;;;;;5.00;2.17;;;44.10;11.30;;;;;;5012676;28;20602;-83
2022/09/02 07:06:08;;;;;;;5.20;2.20;;;45.10;5.20;;;;;;5012738;28;20174;-86
2022/09/02 07:08:39;;;;;;;6.50;2.23;;;46.40;2.50;;;;;;5012512;28;20472;-86
2022/09/02 07:11:06;;;;;;;6.00;2.03;;;47.30;1.00;;;;;;5013565;28;20416;-83
2022/09/02 07:13:33;;;;;;;13.20;2.47;;;47.70;1.00;;;;;;5015122;28;20526;-83
2022/09/02 07:15:59;;;;;;;7.17;1.90;;;47.20;1.00;;;;;;5015453;28;20508;-83
2022/09/02 07:18:25;;;;;;;3.80;1.70;;;46.70;1.00;;;;;;5015258;28;20422;-82
2022/09/02 07:20:52;;;;;;;4.13;1.70;;;45.40;1.00;;;;;;5016803;28;20809;-83
2022/09/02 07:23:17;;;;;;;4.80;2.07;;;43.30;1.00;;;;;;5015399;28;20496;-82
2022/09/02 07:25:43;;;;;;;6.47;2.00;;;41.10;1.00;;;;;;5016810;28;20418;-84
2022/09/02 07:28:10;;;;;;;9.23;2.20;;;41.50;1.00;;;;;;5015336;28;20179;-83
2022/09/02 07:30:38;;;;;;;8.83;1.93;;;43.50;1.00;;;;;;5015021;28;20642;-83
2022/09/02 07:33:04;;;;;;;4.10;2.00;;;44.90;1.00;;;;;;5015077;28;20516;-81
2022/09/02 07:35:30;;;;;;;6.70;1.67;;;45.80;1.00;;;;;;5016278;28;20417;-84
2022/09/02 07:37:55;;;;;;;3.90;1.57;;;46.40;1.00;;;;;;5014992;28;20413;-83
2022/09/02 07:40:22;;;;;;;9.20;2.23;;;46.80;1.00;;;;;;5014602;28;20190;-83
2022/09/02 07:42:49;;;;;;;3.50;1.50;;;47.10;1.00;;;;;;5016042;28;20197;-83
2022/09/02 07:45:14;;;;;;;5.70;1.50;;;47.10;1.00;;;;;;5015905;28;20421;-84
2022/09/02 07:47:40;;;;;;;6.80;1.87;;;47.20;1.00;;;;;;5015028;28;20425;-83
2022/09/02 07:50:06;;;;;;;2.67;1.60;;;46.70;1.00;;;;;;5014728;28;20222;-83
2022/09/02 07:52:31;;;;;;;2.23;1.50;;;46.90;1.00;;;;;;5016007;28;20198;-83
2022/09/02 07:54:57;;;;;;;4.87;1.60;;;45.70;1.00;;;;;;5014253;28;20179;-84
2022/09/02 07:57:25;;;;;;;3.73;1.57;;;45.70;1.00;;;;;;5014574;28;20182;-83
2022/09/02 07:59:51;;;;;;;3.90;2.13;;;45.90;1.00;;;;;;5015653;28;20558;-84
2022/09/02 08:02:17;;;;;;;3.20;1.80;;;45.40;1.00;;;;;;5014490;28;20452;-82
2022/09/02 08:04:43;;;;;;;4.80;1.80;;;44.80;1.00;;;;;;5016065;28;20631;-83
2022/09/02 08:07:09;;;;;;;4.50;2.13;;;44.70;1.00;;;;;;5014331;28;20347;-83
2022/09/02 08:09:35;;;;;;;4.17;1.80;;;44.80;1.00;;;;;;5015404;28;20199;-83
2022/09/02 08:12:02;;;;;;;6.43;1.90;;;45.00;1.00;;;;;;5014339;28;20422;-83
2022/09/02 08:14:28;;;;;;;4.50;1.57;;;46.00;1.00;;;;;;5013883;28;20415;-83
2022/09/02 08:16:57;;;;;;;2.17;1.80;;;46.40;1.00;;;;;;5014184;28;20417;-83
2022/09/02 08:19:23;;;;;;;3.43;1.70;;;46.30;1.00;;;;;;5013965;28;20429;-83
2022/09/02 08:21:50;;;;;;;4.13;1.90;;;46.50;1.00;;;;;;5013405;28;20480;-85
2022/09/02 08:24:15;;;;;;;2.67;1.87;;;46.60;1.00;;;;;;5013867;28;20446;-83
2022/09/02 08:26:41;;;;;;;2.73;1.80;;;47.00;1.00;;;;;;5015248;28;20428;-82
2022/09/02 08:29:07;;;;;;;3.00;1.20;;;46.60;1.00;;;;;;5013787;28;20202;-83
2022/09/02 08:31:36;;;;;;;4.77;2.10;;;46.40;1.00;;;;;;5013903;28;20217;-83
2022/09/02 08:34:01;;;;;;;5.33;1.60;;;46.40;1.00;;;;;;5014784;28;20437;-83
2022/09/02 08:36:27;;;;;;;3.27;1.87;;;46.30;1.00;;;;;;5014775;28;20424;-83
2022/09/02 08:38:54;;;;;;;4.60;1.70;;;46.20;1.00;;;;;;5014961;28;20716;-83
2022/09/02 08:41:32;;;;;;;2.50;1.60;;;46.40;1.00;;;;;;5015201;28;20237;-82
2022/09/02 08:44:00;;;;;;;3.13;1.67;;;46.40;1.00;;;;;;5013252;28;20437;-83
2022/09/02 08:46:30;;;;;;;7.13;2.30;;;46.60;1.00;;;;;;5014799;28;20486;-82
2022/09/02 08:49:07;;;;;;;4.77;1.80;;;47.10;1.00;;;;;;5013318;28;20461;-83
2022/09/02 08:51:49;;;;;;;4.87;1.90;;;47.30;1.00;;;;;;5013378;28;20444;-82
2022/09/02 08:54:20;;;;;;;4.10;1.80;;;47.50;1.00;;;;;;5013253;28;20449;-82
2022/09/02 08:56:50;;;;;;;8.50;2.10;;;46.70;1.00;;;;;;5014848;28;20429;-83
2022/09/02 08:59:21;;;;;;;3.97;1.80;;;46.50;1.00;;;;;;5013522;28;20816;-83
2022/09/02 09:01:53;;;;;;;7.10;1.80;;;46.70;1.00;;;;;;5014504;28;20489;-82
2022/09/02 09:04:37;;;;;;;4.63;1.50;;;46.80;1.00;;;;;;5013227;28;20488;-83
2022/09/02 09:07:19;;;;;;;7.53;1.97;;;46.90;1.00;;;;;;5014324;28;20974;-83
2022/09/02 09:10:00;;;;;;;3.93;1.90;;;47.30;1.00;;;;;;5012842;28;20472;-82
2022/09/02 09:13:03;;;;;;;3.60;1.87;;;47.10;1.00;;;;;;5014195;28;20441;-82
2022/09/02 09:15:37;;;;;;;5.70;1.67;;;46.80;1.00;;;;;;5014020;28;20916;-82
2022/09/02 09:18:15;;;;;;;5.00;1.60;;;46.50;1.00;;;;;;5012967;28;20401;-82
2022/09/02 09:20:42;;;;;;;6.20;1.73;;;46.70;1.00;;;;;;5014303;28;20406;-83
2022/09/02 09:23:23;;;;;;;2.70;1.53;;;46.70;1.00;;;;;;5012993;28;20452;-82
2022/09/02 09:25:54;;;;;;;3.50;1.37;;;46.40;1.00;;;;;;5012925;28;20413;-82
2022/09/02 09:28:19;;;;;;;3.30;1.57;;;46.20;1.00;;;;;;5014345;28;20920;-83
2022/09/02 09:30:45;;;;;;;11.77;1.47;;;45.80;1.00;;;;;;5014045;28;20469;-82
2022/09/02 09:33:16;;;;;;;1.90;1.67;;;45.40;1.00;;;;;;5012067;28;20230;-82
2022/09/02 09:35:50;;;;;;;2.53;1.63;;;44.80;1.00;;;;;;5013919;28;20170;-82
2022/09/02 09:38:31;;;;;;;8.53;1.60;;;44.10;1.00;;;;;;5013834;28;20971;-82
2022/09/02 09:41:19;;;;;;;3.40;1.47;;;43.90;1.00;;;;;;5012990;28;20421;-82
2022/09/02 09:43:45;;;;;;;4.33;1.90;;;44.20;1.00;;;;;;5012343;28;20434;-82
2022/09/02 09:46:39;;;;;;;6.10;1.57;;;44.00;1.00;;;;;;5012745;28;20418;-82
2022/09/02 09:49:05;;;;;;;2.60;1.50;;;43.60;1.00;;;;;;5013152;28;20317;-83
2022/09/02 09:51:31;;;;;;;3.80;1.50;;;43.00;1.00;;;;;;5012529;28;20519;-82
2022/09/02 09:54:14;;;;;;;3.73;1.70;;;42.60;1.00;;;;;;5013468;28;20541;-82
2022/09/02 09:56:40;;;;;;;3.47;1.40;;;42.60;1.00;;;;;;5012717;28;20249;-82
2022/09/02 09:59:07;;;;;;;3.73;1.50;;;42.20;1.00;;;;;;5013830;28;20441;-82
2022/09/02 10:01:34;;;;;;;2.60;1.37;;;42.20;1.00;;;;;;5013592;28;20406;-82
2022/09/02 10:04:11;;;;;;;6.17;1.57;;;42.50;1.00;;;;;;5013162;28;20463;-82
2022/09/02 10:06:42;;;;;;;3.20;1.60;;;42.60;1.00;;;;;;5013541;28;20398;-82
2022/09/02 10:09:14;;;;;;;3.13;1.60;;;42.30;1.00;;;;;;5012100;28;20489;-84
2022/09/02 10:11:56;;;;;;;4.23;1.50;;;42.50;1.00;;;;;;5012392;28;20559;-82
2022/09/02 10:14:22;;;;;;;2.53;1.40;;;42.50;1.00;;;;;;5012088;28;20410;-82
2022/09/02 10:17:27;;;;;;;2.20;1.40;;;42.50;1.00;;;;;;5012059;28;20414;-80
2022/09/02 10:20:15;;;;;;;1.87;1.40;;;42.50;1.00;;;;;;5011977;28;20981;-82
2022/09/02 10:22:58;;;;;;;3.20;1.60;;;42.30;1.00;;;;;;5011932;28;20434;-82
2022/09/02 10:25:37;;;;;;;5.50;1.70;;;42.30;1.00;;;;;;5011741;28;20426;-82
2022/09/02 10:28:20;;;;;;;6.00;1.70;;;42.20;1.00;;;;;;5011808;28;20500;-82
2022/09/02 10:31:00;;;;;;;1.70;1.03;;;42.40;1.00;;;;;;5011849;28;20504;-83
2022/09/02 10:33:49;;;;;;;2.03;1.40;;;42.70;1.00;;;;;;5011888;28;20516;-82
2022/09/02 10:36:35;;;;;;;4.17;1.77;;;42.80;1.00;;;;;;5011910;28;20421;-82
2022/09/02 10:39:44;;;;;;;13.07;1.57;;;42.70;1.00;;;;;;5011951;28;20492;-82
2022/09/02 10:42:28;;;;;;;10.20;2.00;;;42.30;1.00;;;;;;5012890;28;20567;-82
2022/09/02 10:45:09;;;;;;;1.70;1.00;;;41.20;1.00;;;;;;5013698;28;20478;-81
2022/09/02 10:47:36;;;;;;;3.60;1.30;;;41.10;1.00;;;;;;5013547;28;20409;-83
2022/09/02 10:50:09;;;;;;;3.00;1.23;;;40.90;1.00;;;;;;5013177;28;20620;-82
2022/09/02 10:52:53;;;;;;;1.83;1.30;;;40.60;1.00;;;;;;5013518;28;20425;-81
2022/09/02 10:55:41;;;;;;;3.40;1.73;;;40.80;1.00;;;;;;5013391;28;20421;-82
2022/09/02 10:58:21;;;;;;;7.93;2.33;;;40.70;1.00;;;;;;5012558;28;20472;-82
2022/09/02 11:00:50;;;;;;;5.30;1.27;;;40.70;1.00;;;;;;5012409;28;20414;-81
2022/09/02 11:03:34;;;;;;;4.77;1.40;;;40.90;1.00;;;;;;5011656;28;20979;-84
2022/09/02 11:06:16;;;;;;;4.10;1.10;;;41.10;1.00;;;;;;5012825;28;20940;-84
2022/09/02 11:08:56;;;;;;;2.27;1.13;;;40.70;1.00;;;;;;5012754;28;20995;-84
2022/09/02 11:11:31;;;;;;;1.73;1.30;;;40.60;1.00;;;;;;5011887;28;20414;-81
2022/09/02 11:14:15;;;;;;;1.97;1.60;;;40.90;1.00;;;;;;5012312;28;20445;-82
2022/09/02 11:17:01;;;;;;;3.00;1.10;;;41.00;1.00;;;;;;5013467;28;20421;-81
2022/09/02 11:19:50;;;;;;;2.33;1.40;;;41.30;1.00;;;;;;5012376;28;20920;-82
2022/09/02 11:22:24;;;;;;;5.63;2.33;;;41.00;1.00;;;;;;5011049;28;21018;-82
2022/09/02 11:25:12;;;;;;;2.20;1.07;;;41.20;1.00;;;;;;5011530;28;20426;-82
2022/09/02 11:27:45;;;;;;;2.60;1.17;;;41.00;1.00;;;;;;5012523;28;20452;-83
2022/09/02 11:30:22;;;;;;;5.70;1.30;;;40.60;1.00;;;;;;5012902;28;20467;-81
2022/09/02 11:33:10;;;;;;;2.87;1.27;;;40.20;1.00;;;;;;5013697;28;20905;-84
2022/09/02 11:35:38;;;;;;;3.97;1.23;;;39.90;1.00;;;;;;5014618;28;20448;-84
2022/09/02 11:38:14;;;;;;;3.43;1.40;;;39.80;1.00;;;;;;5012276;28;20456;-84
2022/09/02 11:41:17;;;;;;;1.20;1.10;;;39.70;1.00;;;;;;5014760;28;20786;-84
2022/09/02 11:43:51;;;;;;;2.20;1.10;;;39.60;1.00;;;;;;5013845;28;20880;-85
2022/09/02 11:46:39;;;;;;;3.10;1.10;;;39.60;1.00;;;;;;5012129;28;20467;-86
2022/09/02 11:49:28;;;;;;;1.37;1.20;;;39.70;1.00;;;;;;5012401;28;20544;-84
2022/09/02 11:52:05;;;;;;;2.97;1.80;;;40.40;1.00;;;;;;5012178;28;20426;-84
2022/09/02 11:54:42;;;;;;;4.00;1.57;;;40.80;1.00;;;;;;5013245;28;21160;-84
2022/09/02 11:57:21;;;;;;;7.40;1.10;;;41.00;1.00;;;;;;5016294;28;20413;-84
2022/09/02 11:59:49;;;;;;;3.50;1.50;;;40.60;1.00;;;;;;5018630;28;20412;-84
2022/09/02 12:02:43;;;;;;;3.03;1.10;;;40.20;1.00;;;;;;5018476;28;20442;-83
2022/09/02 12:05:30;;;;;;;2.30;1.17;;;40.00;1.00;;;;;;5016232;28;20421;-84
2022/09/02 12:08:14;;;;;;;1.90;1.07;;;40.00;1.00;;;;;;5015844;28;20428;-84
2022/09/02 12:10:42;;;;;;;3.53;1.00;;;40.50;1.00;;;;;;5015788;28;20458;-84
2022/09/02 12:13:11;;;;;;;2.73;1.20;;;40.60;1.00;;;;;;5016321;28;20999;-84
2022/09/02 12:15:39;;;;;;;4.60;1.40;;;40.80;1.00;;;;;;5017460;28;20418;-84
2022/09/02 12:18:26;;;;;;;3.20;1.30;;;41.00;1.00;;;;;;5017390;28;20840;-84
2022/09/02 12:20:58;;;;;;;3.30;1.20;;;40.90;1.00;;;;;;5017547;28;20464;-84
2022/09/02 12:23:54;;;;;;;2.93;1.37;;;39.70;1.00;;;;;;5017876;28;20468;-85
2022/09/02 12:26:35;;;;;;;3.10;1.13;;;39.40;1.00;;;;;;5017175;28;20511;-84
2022/09/02 12:29:23;;;;;;;2.17;1.10;;;39.10;1.00;;;;;;5016578;28;20466;-84
2022/09/02 12:31:50;;;;;;;3.50;1.50;;;39.20;1.00;;;;;;5016099;28;20856;-84
2022/09/02 12:34:19;;;;;;;7.80;1.63;;;39.30;1.00;;;;;;5015150;28;20441;-84
2022/09/02 12:36:46;;;;;;;7.20;1.57;;;39.40;1.00;;;;;;5018564;28;20468;-83
2022/09/02 12:39:24;;;;;;;5.73;1.00;;;38.90;1.00;;;;;;5017666;28;20422;-84
2022/09/02 12:42:05;;;;;;;5.60;1.30;;;38.60;1.00;;;;;;5018379;28;20445;-84
2022/09/02 12:45:01;;;;;;;3.00;1.77;;;38.50;1.00;;;;;;5018178;28;20430;-84
2022/09/02 12:47:43;;;;;;;1.87;1.00;;;38.20;1.00;;;;;;5016873;28;20449;-85
2022/09/02 12:50:32;;;;;;;2.73;1.33;;;38.20;1.00;;;;;;5020146;28;20469;-86
2022/09/02 12:53:10;;;;;;;4.00;1.17;;;38.10;1.00;;;;;;5018064;28;20454;-84
2022/09/02 12:55:36;;;;;;;3.40;1.10;;;38.10;1.00;;;;;;5016011;28;20418;-84
2022/09/02 12:58:18;;;;;;;5.40;1.23;;;38.20;1.00;;;;;;5020491;28;20790;-84
2022/09/02 13:01:09;;;;;;;3.70;1.10;;;38.20;1.00;;;;;;5022533;28;20889;-84
2022/09/02 13:04:02;;;;;;;1.47;1.30;;;37.90;1.00;;;;;;5021045;28;20528;-84
2022/09/02 13:06:39;;;;;;;2.90;0.90;;;38.00;1.00;;;;;;5020484;28;20437;-84
2022/09/02 13:09:56;;;;;;;3.40;1.33;;;37.90;1.00;;;;;;5019973;28;20496;-84
2022/09/02 13:12:47;;;;;;;2.10;1.30;;;37.40;1.00;;;;;;5019284;28;20576;-83